createdAt,value
2022-09-25T00:01:30.709Z,90.40
2022-09-25T00:03:58.955Z,90.23
2022-09-25T00:06:29.068Z,90.18
2022-09-25T00:08:59.259Z,90.58
2022-09-25T00:11:32.869Z,90.27
2022-09-25T00:14:02.974Z,90.65
2022-09-25T00:16:33.069Z,90.12
2022-09-25T00:19:19.570Z,90.48
2022-09-25T00:21:52.918Z,90.93
2022-09-25T00:24:22.237Z,90.17
2022-09-25T00:26:51.715Z,91.06
2022-09-25T00:29:21.602Z,90.75
2022-09-25T00:31:49.956Z,90.00
2022-09-25T00:34:18.130Z,90.22
2022-09-25T00:36:46.250Z,90.42
2022-09-25T00:39:14.466Z,90.39
2022-09-25T00:41:42.618Z,90.17
2022-09-25T00:44:57.492Z,90.53
2022-09-25T00:47:48.120Z,90.69
2022-09-25T00:50:28.406Z,90.08
2022-09-25T00:53:03.982Z,91.34
2022-09-25T00:55:34.529Z,91.06
2022-09-25T00:58:04.969Z,90.73
2022-09-25T01:00:35.611Z,90.54
2022-09-25T01:03:05.481Z,90.66
2022-09-25T01:05:38.807Z,90.75
2022-09-25T01:08:11.785Z,90.46
2022-09-25T01:10:42.013Z,90.71
2022-09-25T01:13:10.995Z,90.57
2022-09-25T01:15:49.872Z,90.15
2022-09-25T01:18:33.467Z,90.97
2022-09-25T01:21:23.172Z,90.17
2022-09-25T01:24:42.837Z,90.36
2022-09-25T01:27:32.819Z,90.07
2022-09-25T01:30:08.913Z,90.55
2022-09-25T01:32:51.604Z,89.78
2022-09-25T01:35:29.947Z,89.48
2022-09-25T01:38:04.387Z,89.66
2022-09-25T01:40:37.157Z,90.45
2022-09-25T01:43:13.821Z,89.54
2022-09-25T01:45:48.463Z,90.34
2022-09-25T01:48:20.191Z,90.79
2022-09-25T01:50:53.761Z,90.70
2022-09-25T01:53:27.722Z,90.79
2022-09-25T01:55:59.416Z,90.10
2022-09-25T01:58:34.470Z,91.20
2022-09-25T02:01:10.983Z,90.98
2022-09-25T02:03:45.679Z,91.24
2022-09-25T02:06:19.779Z,90.58
2022-09-25T02:08:52.421Z,90.53
2022-09-25T02:11:21.254Z,90.24
2022-09-25T02:13:56.601Z,90.39
2022-09-25T02:16:33.092Z,90.62
2022-09-25T02:19:33.628Z,90.86
2022-09-25T02:22:08.967Z,90.46
2022-09-25T02:24:46.132Z,90.71
2022-09-25T02:27:15.661Z,89.91
2022-09-25T02:29:43.982Z,90.27
2022-09-25T02:32:16.157Z,89.62
2022-09-25T02:34:44.652Z,90.03
2022-09-25T02:37:13.843Z,90.38
2022-09-25T02:39:44.534Z,89.92
2022-09-25T02:42:28.118Z,91.30
2022-09-25T02:45:13.199Z,89.81
2022-09-25T02:47:55.545Z,90.61
2022-09-25T02:50:28.612Z,91.13
2022-09-25T02:53:07.411Z,90.42
2022-09-25T02:55:41.962Z,90.86
2022-09-25T02:58:17.112Z,90.81
2022-09-25T03:00:49.039Z,90.08
2022-09-25T03:03:22.926Z,89.97
2022-09-25T03:05:52.819Z,90.75
2022-09-25T03:08:41.690Z,90.45
2022-09-25T03:11:12.359Z,90.00
2022-09-25T03:13:41.708Z,90.80
2022-09-25T03:16:18.747Z,90.91
2022-09-25T03:18:48.947Z,91.02
2022-09-25T03:21:17.191Z,90.93
2022-09-25T03:23:45.856Z,90.49
2022-09-25T03:26:14.040Z,91.35
2022-09-25T03:28:42.227Z,91.23
2022-09-25T03:31:12.686Z,91.73
2022-09-25T03:33:43.131Z,91.09
2022-09-25T03:36:16.364Z,90.53
2022-09-25T03:38:45.866Z,91.16
2022-09-25T03:41:20.153Z,90.59
2022-09-25T03:43:51.683Z,91.33
2022-09-25T03:46:24.992Z,90.29
2022-09-25T03:48:54.223Z,90.81
2022-09-25T03:51:24.938Z,90.79
2022-09-25T03:53:53.594Z,91.49
2022-09-25T03:56:24.868Z,91.52
2022-09-25T03:58:54.697Z,91.38
2022-09-25T04:01:24.472Z,91.57
2022-09-25T04:03:53.594Z,91.65
2022-09-25T04:06:26.554Z,92.46
2022-09-25T04:08:55.546Z,91.90
2022-09-25T04:11:25.478Z,90.99
2022-09-25T04:13:54.048Z,91.30
2022-09-25T04:16:22.585Z,92.09
2022-09-25T04:18:51.235Z,92.22
2022-09-25T04:21:19.435Z,92.41
2022-09-25T04:24:02.932Z,91.38
2022-09-25T04:26:31.557Z,91.60
2022-09-25T04:29:01.329Z,91.90
2022-09-25T04:31:29.950Z,92.22
2022-09-25T04:33:57.195Z,91.74
2022-09-25T04:36:25.354Z,91.96
2022-09-25T04:38:54.806Z,91.94
2022-09-25T04:41:22.986Z,92.34
2022-09-25T04:43:51.110Z,92.82
2022-09-25T04:46:22.470Z,91.88
2022-09-25T04:48:51.685Z,92.18
2022-09-25T04:51:20.461Z,92.02
2022-09-25T04:53:48.583Z,91.96
2022-09-25T04:56:18.070Z,92.14
2022-09-25T04:58:47.830Z,91.73
2022-09-25T05:01:19.032Z,91.14
2022-09-25T05:03:50.252Z,91.33
2022-09-25T05:06:18.569Z,90.81
2022-09-25T05:08:49.645Z,91.79
2022-09-25T05:11:19.223Z,91.20
2022-09-25T05:13:51.716Z,90.79
2022-09-25T05:16:20.131Z,90.60
2022-09-25T05:18:48.658Z,91.27
2022-09-25T05:21:17.051Z,89.93
2022-09-25T05:23:45.147Z,91.03
2022-09-25T05:26:13.974Z,90.79
2022-09-25T05:28:53.341Z,91.53
2022-09-25T05:31:21.631Z,90.24
2022-09-25T05:33:51.354Z,91.70
2022-09-25T05:36:19.656Z,90.68
2022-09-25T05:38:48.428Z,90.52
2022-09-25T05:41:16.750Z,90.66
2022-09-25T05:43:47.818Z,90.81
2022-09-25T05:46:16.766Z,91.63
2022-09-25T05:48:45.052Z,91.10
2022-09-25T05:51:13.453Z,91.25
2022-09-25T05:53:42.132Z,91.66
2022-09-25T05:56:10.339Z,91.48
2022-09-25T05:58:38.828Z,90.63
2022-09-25T06:01:08.323Z,92.00
2022-09-25T06:03:36.513Z,91.38
2022-09-25T06:06:05.218Z,91.95
2022-09-25T06:08:35.480Z,91.38
2022-09-25T06:11:04.606Z,92.38
2022-09-25T06:13:34.877Z,92.45
2022-09-25T06:16:03.967Z,91.93
2022-09-25T06:18:34.281Z,92.53
2022-09-25T06:21:05.147Z,92.17
2022-09-25T06:23:33.636Z,92.51
2022-09-25T06:26:03.260Z,92.95
2022-09-25T06:28:31.857Z,93.32
2022-09-25T06:31:02.003Z,93.20
2022-09-25T06:33:30.563Z,93.01
2022-09-25T06:36:00.597Z,92.92
2022-09-25T06:38:29.042Z,92.46
2022-09-25T06:40:59.890Z,93.36
2022-09-25T06:43:29.118Z,92.52
2022-09-25T06:46:03.217Z,93.57
2022-09-25T06:48:32.034Z,93.42
2022-09-25T06:51:02.716Z,93.20
2022-09-25T06:53:31.432Z,92.96
2022-09-25T06:56:00.809Z,93.50
2022-09-25T06:58:30.623Z,93.55
2022-09-25T07:00:59.010Z,93.12
2022-09-25T07:03:44.835Z,93.06
2022-09-25T07:06:16.608Z,93.61
2022-09-25T07:08:46.308Z,94.18
2022-09-25T07:11:16.923Z,94.37
2022-09-25T07:13:45.448Z,94.13
2022-09-25T07:16:16.010Z,94.18
2022-09-25T07:18:45.004Z,93.97
2022-09-25T07:21:17.394Z,94.21
2022-09-25T07:23:48.708Z,94.20
2022-09-25T07:26:21.792Z,94.33
2022-09-25T07:28:56.097Z,94.32
2022-09-25T07:31:27.921Z,94.35
2022-09-25T07:33:56.826Z,94.05
2022-09-25T07:36:26.403Z,94.57
2022-09-25T07:38:55.214Z,94.66
2022-09-25T07:41:23.990Z,94.36
2022-09-25T07:44:06.250Z,94.64
2022-09-25T07:46:43.175Z,94.30
2022-09-25T07:49:11.544Z,94.59
2022-09-25T07:51:43.267Z,94.08
2022-09-25T07:54:11.670Z,93.54
2022-09-25T07:56:40.230Z,93.43
2022-09-25T07:59:08.419Z,93.94
2022-09-25T08:01:42.606Z,93.80
2022-09-25T08:04:11.743Z,93.15
2022-09-25T08:06:41.225Z,92.88
2022-09-25T08:09:10.776Z,92.77
2022-09-25T08:11:39.518Z,93.12
2022-09-25T08:14:07.841Z,92.47
2022-09-25T08:16:36.048Z,92.20
2022-09-25T08:19:05.012Z,92.16
2022-09-25T08:21:33.391Z,92.31
2022-09-25T08:24:03.688Z,91.78
2022-09-25T08:26:31.879Z,91.84
2022-09-25T08:29:00.633Z,91.93
2022-09-25T08:31:29.280Z,91.80
2022-09-25T08:34:06.154Z,91.72
2022-09-25T08:36:45.745Z,90.94
2022-09-25T08:39:15.263Z,90.55
2022-09-25T08:41:49.274Z,90.00
2022-09-25T08:44:26.397Z,89.29
2022-09-25T08:47:19.773Z,89.18
2022-09-25T08:50:03.710Z,89.19
2022-09-25T08:52:33.413Z,88.20
2022-09-25T08:55:02.997Z,87.91
2022-09-25T08:57:37.337Z,87.25
2022-09-25T09:00:11.945Z,86.96
2022-09-25T09:02:43.811Z,86.46
2022-09-25T09:05:21.511Z,86.15
2022-09-25T09:07:55.660Z,85.70
2022-09-25T09:10:33.812Z,84.88
2022-09-25T09:13:08.794Z,84.46
2022-09-25T09:15:41.328Z,83.79
2022-09-25T09:18:22.539Z,83.21
2022-09-25T09:20:54.457Z,82.60
2022-09-25T09:23:24.838Z,82.12
2022-09-25T09:26:03.082Z,81.59
2022-09-25T09:29:18.911Z,81.43
2022-09-25T09:31:59.654Z,79.68
2022-09-25T09:35:07.763Z,78.68
2022-09-25T09:37:54.974Z,77.39
2022-09-25T09:40:38.028Z,75.86
2022-09-25T09:43:20.440Z,75.07
2022-09-25T09:45:56.871Z,74.76
2022-09-25T09:48:32.447Z,73.95
2022-09-25T09:51:07.091Z,73.23
2022-09-25T09:53:40.320Z,72.58
2022-09-25T09:56:15.659Z,72.25
2022-09-25T09:58:51.051Z,71.60
2022-09-25T10:01:40.284Z,70.76
2022-09-25T10:04:12.609Z,70.56
2022-09-25T10:06:46.374Z,69.99
2022-09-25T10:09:17.434Z,69.77
2022-09-25T10:11:48.340Z,69.73
2022-09-25T10:14:22.613Z,69.99
2022-09-25T10:16:53.835Z,70.40
2022-09-25T10:19:25.700Z,70.92
2022-09-25T10:21:58.239Z,71.64
2022-09-25T10:24:52.455Z,72.30
2022-09-25T10:27:29.708Z,71.95
2022-09-25T10:30:21.058Z,72.05
2022-09-25T10:32:58.956Z,71.92
2022-09-25T10:35:30.918Z,71.66
2022-09-25T10:38:02.459Z,71.61
2022-09-25T10:40:35.033Z,71.26
2022-09-25T10:43:20.369Z,71.35
2022-09-25T10:45:52.697Z,72.12
2022-09-25T10:48:49.695Z,71.96
2022-09-25T10:51:19.942Z,71.60
2022-09-25T10:53:49.375Z,70.80
2022-09-25T10:56:22.591Z,70.51
2022-09-25T10:58:56.281Z,70.12
2022-09-25T11:01:35.714Z,69.58
2022-09-25T11:04:12.949Z,69.04
2022-09-25T11:06:47.131Z,68.20
2022-09-25T11:09:17.849Z,67.37
2022-09-25T11:11:49.400Z,66.53
2022-09-25T11:14:23.447Z,65.92
2022-09-25T11:16:57.427Z,66.48
2022-09-25T11:19:31.510Z,67.16
2022-09-25T11:22:09.111Z,67.77
2022-09-25T11:24:50.731Z,68.54
2022-09-25T11:27:25.688Z,69.31
2022-09-25T11:30:04.880Z,69.84
2022-09-25T11:32:46.625Z,69.72
2022-09-25T11:35:36.809Z,69.45
2022-09-25T11:38:17.323Z,70.08
2022-09-25T11:41:12.316Z,70.25
2022-09-25T11:43:57.756Z,70.33
2022-09-25T11:46:43.007Z,70.28
2022-09-25T11:49:20.906Z,69.99
2022-09-25T11:52:33.381Z,70.31
2022-09-25T11:55:43.209Z,70.03
2022-09-25T11:58:31.949Z,70.09
2022-09-25T12:01:10.574Z,70.16
2022-09-25T12:03:59.522Z,70.45
2022-09-25T12:06:56.315Z,70.54
2022-09-25T12:09:54.064Z,71.20
2022-09-25T12:12:32.428Z,70.61
2022-09-25T12:15:15.105Z,68.45
2022-09-25T12:17:54.215Z,66.60
2022-09-25T12:20:31.956Z,65.01
2022-09-25T12:23:15.850Z,61.87
2022-09-25T12:26:12.439Z,58.23
2022-09-25T12:28:55.384Z,55.27
2022-09-25T12:31:39.480Z,53.68
2022-09-25T12:34:19.520Z,53.43
2022-09-25T12:36:54.211Z,52.47
2022-09-25T12:39:32.709Z,53.80
2022-09-25T12:42:08.911Z,58.29
2022-09-25T12:44:46.688Z,63.95
2022-09-25T12:47:23.837Z,68.46
2022-09-25T12:50:02.157Z,70.80
2022-09-25T12:52:37.715Z,72.39
2022-09-25T12:55:14.394Z,73.03
2022-09-25T12:57:48.254Z,73.55
2022-09-25T13:00:22.319Z,74.17
2022-09-25T13:02:59.432Z,74.73
2022-09-25T13:05:34.971Z,74.83
2022-09-25T13:08:11.089Z,75.18
2022-09-25T13:10:46.107Z,75.31
2022-09-25T13:13:21.371Z,75.81
2022-09-25T13:15:55.625Z,76.75
2022-09-25T13:18:26.106Z,76.99
2022-09-25T13:20:56.054Z,77.28
2022-09-25T13:23:37.605Z,76.80
2022-09-25T13:26:14.775Z,76.17
2022-09-25T13:28:52.282Z,75.63
2022-09-25T13:31:27.444Z,76.52
2022-09-25T13:34:04.394Z,77.40
2022-09-25T13:36:38.085Z,77.66
2022-09-25T13:39:36.255Z,76.06
2022-09-25T13:42:09.760Z,72.49
2022-09-25T13:44:58.057Z,69.86
2022-09-25T13:48:05.993Z,67.25
2022-09-25T13:50:44.153Z,64.93
2022-09-25T13:53:29.599Z,62.76
2022-09-25T13:56:48.307Z,59.10
2022-09-25T13:59:40.035Z,56.13
2022-09-25T14:02:43.734Z,56.36
2022-09-25T14:05:18.532Z,56.80
2022-09-25T14:07:50.822Z,57.59
2022-09-25T14:10:20.249Z,55.02
2022-09-25T14:12:50.874Z,53.44
2022-09-25T14:15:27.888Z,54.25
2022-09-25T14:17:58.641Z,56.19
2022-09-25T14:20:40.141Z,52.91
2022-09-25T14:23:15.424Z,51.62
2022-09-25T14:25:47.459Z,50.34
2022-09-25T14:28:25.498Z,49.23
2022-09-25T14:31:23.726Z,46.73
2022-09-25T14:34:25.867Z,44.60
2022-09-25T14:37:11.316Z,43.38
2022-09-25T14:39:46.638Z,40.38
2022-09-25T14:42:55.246Z,40.31
2022-09-25T14:45:57.839Z,37.76
2022-09-25T14:48:31.900Z,37.71
2022-09-25T14:51:06.413Z,36.77
2022-09-25T14:53:38.358Z,35.76
2022-09-25T14:56:11.988Z,37.21
2022-09-25T14:58:45.665Z,38.97
2022-09-25T15:01:24.642Z,38.40
2022-09-25T15:03:58.774Z,37.06
2022-09-25T15:06:29.359Z,34.94
2022-09-25T15:08:58.080Z,34.87
2022-09-25T15:11:29.669Z,35.88
2022-09-25T15:14:11.712Z,36.33
2022-09-25T15:16:58.186Z,38.22
2022-09-25T15:19:34.014Z,37.14
2022-09-25T15:22:02.486Z,37.63
2022-09-25T15:24:36.460Z,37.19
2022-09-25T15:27:08.963Z,37.72
2022-09-25T15:29:39.308Z,38.92
2022-09-25T15:32:07.580Z,38.41
2022-09-25T15:34:37.450Z,37.18
2022-09-25T15:37:26.293Z,37.02
2022-09-25T15:39:55.087Z,36.37
2022-09-25T15:42:23.871Z,36.03
2022-09-25T15:44:52.059Z,35.69
2022-09-25T15:47:53.576Z,34.94
2022-09-25T15:50:27.583Z,36.26
2022-09-25T15:52:59.635Z,37.14
2022-09-25T15:55:31.171Z,38.29
2022-09-25T15:58:09.136Z,40.28
2022-09-25T16:00:54.995Z,41.67
2022-09-25T16:03:56.044Z,43.27
2022-09-25T16:06:25.533Z,43.86
2022-09-25T16:09:11.282Z,44.42
2022-09-25T16:11:39.546Z,45.96
2022-09-25T16:14:29.229Z,45.78
2022-09-25T16:17:00.064Z,46.41
2022-09-25T16:19:34.998Z,47.23
2022-09-25T16:22:23.242Z,48.73
2022-09-25T16:24:55.399Z,49.40
2022-09-25T16:27:33.492Z,50.28
2022-09-25T16:30:04.601Z,51.98
2022-09-25T16:32:33.441Z,52.61
2022-09-25T16:35:03.993Z,53.59
2022-09-25T16:37:36.278Z,54.46
2022-09-25T16:40:28.859Z,55.00
2022-09-25T16:42:59.103Z,56.16
2022-09-25T16:45:33.126Z,56.83
2022-09-25T16:48:29.577Z,57.28
2022-09-25T16:51:01.194Z,58.18
2022-09-25T16:53:30.802Z,58.32
2022-09-25T16:55:59.066Z,59.17
2022-09-25T16:58:27.798Z,59.08
2022-09-25T17:00:56.677Z,59.28
2022-09-25T17:03:24.793Z,60.19
2022-09-25T17:05:53.016Z,60.33
2022-09-25T17:08:23.905Z,60.78
2022-09-25T17:10:53.872Z,61.19
2022-09-25T17:13:30.535Z,61.80
2022-09-25T17:15:58.698Z,62.16
2022-09-25T17:18:26.987Z,62.56
2022-09-25T17:20:56.780Z,62.84
2022-09-25T17:23:27.117Z,63.59
2022-09-25T17:26:01.589Z,63.72
2022-09-25T17:28:32.825Z,64.04
2022-09-25T17:31:02.468Z,64.20
2022-09-25T17:33:32.415Z,64.94
2022-09-25T17:36:04.803Z,65.50
2022-09-25T17:38:33.897Z,66.00
2022-09-25T17:41:06.271Z,66.77
2022-09-25T17:43:34.848Z,67.20
2022-09-25T17:46:03.140Z,67.51
2022-09-25T17:48:32.761Z,67.43
2022-09-25T17:51:03.819Z,68.09
2022-09-25T17:53:34.239Z,68.81
2022-09-25T17:56:06.840Z,68.95
2022-09-25T17:58:35.178Z,69.53
2022-09-25T18:01:06.516Z,69.97
2022-09-25T18:03:34.763Z,70.24
2022-09-25T18:06:02.879Z,70.79
2022-09-25T18:08:31.060Z,70.67
2022-09-25T18:10:59.762Z,71.11
2022-09-25T18:13:29.235Z,71.44
2022-09-25T18:16:00.689Z,71.80
2022-09-25T18:18:49.554Z,71.65
2022-09-25T18:21:35.895Z,72.60
2022-09-25T18:24:04.738Z,72.57
2022-09-25T18:26:32.879Z,72.31
2022-09-25T18:29:03.889Z,72.81
2022-09-25T18:31:32.266Z,73.07
2022-09-25T18:34:00.494Z,72.97
2022-09-25T18:36:28.606Z,73.58
2022-09-25T18:38:56.856Z,73.08
2022-09-25T18:41:25.132Z,73.79
2022-09-25T18:43:53.603Z,74.26
2022-09-25T18:46:23.391Z,74.43
2022-09-25T18:48:53.494Z,74.72
2022-09-25T18:51:21.584Z,74.68
2022-09-25T18:53:52.684Z,74.92
2022-09-25T18:56:21.637Z,75.27
2022-09-25T18:58:50.898Z,75.10
2022-09-25T19:01:19.391Z,75.53
2022-09-25T19:03:51.982Z,75.86
2022-09-25T19:06:21.159Z,75.95
2022-09-25T19:08:54.045Z,76.05
2022-09-25T19:11:23.834Z,76.51
2022-09-25T19:13:52.859Z,76.64
2022-09-25T19:16:22.416Z,76.81
2022-09-25T19:18:52.289Z,76.95
2022-09-25T19:21:22.539Z,76.84
2022-09-25T19:23:57.109Z,77.17
2022-09-25T19:26:26.792Z,77.20
2022-09-25T19:28:55.617Z,77.42
2022-09-25T19:31:27.195Z,77.51
2022-09-25T19:33:58.233Z,77.43
2022-09-25T19:36:31.249Z,77.70
2022-09-25T19:39:00.734Z,77.76
2022-09-25T19:41:30.886Z,77.64
2022-09-25T19:44:08.174Z,77.88
2022-09-25T19:46:41.391Z,77.62
2022-09-25T19:49:11.483Z,77.97
2022-09-25T19:51:40.228Z,77.79
2022-09-25T19:54:09.610Z,77.99
2022-09-25T19:56:40.635Z,77.69
2022-09-25T19:59:10.689Z,78.38
2022-09-25T20:01:38.973Z,78.33
2022-09-25T20:04:08.594Z,78.40
2022-09-25T20:06:39.572Z,78.60
2022-09-25T20:09:10.330Z,78.22
2022-09-25T20:11:38.639Z,78.56
2022-09-25T20:14:07.849Z,78.58
2022-09-25T20:16:37.499Z,78.72
2022-09-25T20:19:07.893Z,78.96
2022-09-25T20:21:39.225Z,78.69
2022-09-25T20:24:09.585Z,79.08
2022-09-25T20:26:38.396Z,79.40
2022-09-25T20:29:10.348Z,79.44
2022-09-25T20:31:40.522Z,79.21
2022-09-25T20:34:08.778Z,79.55
2022-09-25T20:36:38.994Z,79.54
2022-09-25T20:39:07.932Z,79.62
2022-09-25T20:41:36.759Z,79.50
2022-09-25T20:44:06.781Z,79.63
2022-09-25T20:46:35.175Z,79.90
2022-09-25T20:49:03.679Z,79.88
2022-09-25T20:51:35.116Z,79.89
2022-09-25T20:54:07.856Z,79.88
2022-09-25T20:56:38.554Z,79.81
2022-09-25T20:59:07.070Z,79.78
2022-09-25T21:01:37.989Z,79.97
2022-09-25T21:04:08.793Z,79.89
2022-09-25T21:06:39.914Z,80.04
2022-09-25T21:09:20.261Z,79.89
2022-09-25T21:11:48.837Z,80.09
2022-09-25T21:14:20.313Z,79.94
2022-09-25T21:16:49.733Z,79.99
2022-09-25T21:19:21.582Z,79.84
2022-09-25T21:21:49.921Z,79.81
2022-09-25T21:24:21.845Z,80.13
2022-09-25T21:26:50.721Z,80.37
2022-09-25T21:29:19.874Z,80.09
2022-09-25T21:31:50.321Z,80.11
2022-09-25T21:34:19.745Z,80.37
2022-09-25T21:36:48.453Z,80.40
2022-09-25T21:39:16.691Z,80.65
2022-09-25T21:41:46.419Z,80.26
2022-09-25T21:44:16.947Z,80.19
2022-09-25T21:46:45.565Z,80.18
2022-09-25T21:49:19.642Z,80.05
2022-09-25T21:51:49.748Z,79.92
2022-09-25T21:54:18.531Z,79.93
2022-09-25T21:56:48.600Z,79.81
2022-09-25T21:59:17.231Z,79.83
2022-09-25T22:01:45.547Z,79.78
2022-09-25T22:04:15.825Z,79.77
2022-09-25T22:06:47.432Z,79.99
2022-09-25T22:09:18.812Z,79.81
2022-09-25T22:11:49.181Z,79.82
2022-09-25T22:14:18.285Z,79.72
2022-09-25T22:16:49.806Z,79.94
2022-09-25T22:19:21.065Z,79.53
2022-09-25T22:21:51.827Z,79.68
2022-09-25T22:24:20.838Z,79.98
2022-09-25T22:26:52.555Z,79.92
2022-09-25T22:29:21.994Z,79.70
2022-09-25T22:31:50.493Z,80.05
2022-09-25T22:34:22.556Z,79.92
2022-09-25T22:36:56.245Z,79.94
2022-09-25T22:39:27.019Z,80.02
2022-09-25T22:41:57.578Z,79.63
2022-09-25T22:44:26.533Z,79.71
2022-09-25T22:46:54.883Z,79.71
2022-09-25T22:49:23.230Z,79.85
2022-09-25T22:51:51.343Z,79.88
2022-09-25T22:54:19.735Z,79.66
2022-09-25T22:56:47.973Z,80.02
2022-09-25T22:59:18.842Z,79.98
2022-09-25T23:01:49.614Z,79.77
2022-09-25T23:04:20.864Z,79.90
2022-09-25T23:06:50.078Z,79.81
2022-09-25T23:09:21.475Z,79.91
2022-09-25T23:11:49.997Z,79.97
2022-09-25T23:14:22.583Z,79.98
2022-09-25T23:16:54.460Z,79.59
2022-09-25T23:19:23.504Z,79.53
2022-09-25T23:21:53.976Z,79.81
2022-09-25T23:24:25.109Z,79.86
2022-09-25T23:26:54.149Z,79.72
2022-09-25T23:29:24.043Z,79.82
2022-09-25T23:31:52.896Z,80.03
2022-09-25T23:34:21.150Z,80.25
2022-09-25T23:36:49.396Z,80.11
2022-09-25T23:39:20.213Z,80.23
2022-09-25T23:41:48.926Z,80.51
2022-09-25T23:44:17.523Z,79.85
2022-09-25T23:46:47.241Z,79.98
2022-09-25T23:49:16.803Z,80.79
2022-09-25T23:51:46.218Z,80.85
2022-09-25T23:54:14.916Z,80.12
2022-09-25T23:56:43.502Z,80.16
2022-09-25T23:59:13.928Z,80.73
